createdAt,value
2018-09-23T00:00:04.571Z,1005.62
2018-09-23T00:01:04.518Z,1005.62
2018-09-23T00:02:04.465Z,1005.63
2018-09-23T00:03:04.439Z,1005.65
2018-09-23T00:04:04.362Z,1005.66
2018-09-23T00:05:04.312Z,1005.65
2018-09-23T00:06:04.261Z,1005.62
2018-09-23T00:07:04.212Z,1005.63
2018-09-23T00:08:04.183Z,1005.58
2018-09-23T00:09:04.108Z,1005.51
2018-09-23T00:10:04.057Z,1005.45
2018-09-23T00:11:04.009Z,1005.38
2018-09-23T00:12:03.956Z,1005.34
2018-09-23T00:13:03.928Z,1005.35
2018-09-23T00:14:03.854Z,1005.38
2018-09-23T00:15:03.806Z,1005.33
2018-09-23T00:16:03.752Z,1005.27
2018-09-23T00:17:03.701Z,1005.25
2018-09-23T00:18:03.671Z,1005.20
2018-09-23T00:19:03.598Z,1005.14
2018-09-23T00:20:03.553Z,1005.12
2018-09-23T00:21:03.495Z,1005.13
2018-09-23T00:22:03.476Z,1005.17
2018-09-23T00:23:03.419Z,1005.15
2018-09-23T00:24:03.345Z,1005.09
2018-09-23T00:25:03.297Z,1005.02
2018-09-23T00:26:03.245Z,1005.05
2018-09-23T00:27:03.191Z,1005.06
2018-09-23T00:28:03.162Z,1005.08
2018-09-23T00:29:03.090Z,1005.06
2018-09-23T00:30:03.038Z,1005.03
2018-09-23T00:31:02.991Z,1004.99
2018-09-23T00:32:02.935Z,1004.97
2018-09-23T00:33:02.908Z,1004.98
2018-09-23T00:34:02.836Z,1004.93
2018-09-23T00:35:02.783Z,1004.94
2018-09-23T00:36:02.734Z,1004.91
2018-09-23T00:37:02.680Z,1004.89
2018-09-23T00:38:02.636Z,1004.88
2018-09-23T00:39:02.604Z,1004.83
2018-09-23T00:40:02.524Z,1004.78
2018-09-23T00:41:02.482Z,1004.78
2018-09-23T00:42:02.430Z,1004.83
2018-09-23T00:43:02.374Z,1004.81
2018-09-23T00:44:02.346Z,1004.82
2018-09-23T00:45:02.283Z,1004.84
2018-09-23T00:46:02.224Z,1004.82
2018-09-23T00:47:02.175Z,1004.85
2018-09-23T00:48:02.119Z,1004.90
2018-09-23T00:49:02.092Z,1004.96
2018-09-23T00:50:02.020Z,1004.98
2018-09-23T00:51:01.971Z,1004.99
2018-09-23T00:52:01.915Z,1004.95
2018-09-23T00:53:01.862Z,1005.00
2018-09-23T00:54:01.837Z,1005.00
2018-09-23T00:55:01.765Z,1005.01
2018-09-23T00:56:01.712Z,1005.00
2018-09-23T00:57:01.661Z,1004.99
2018-09-23T00:58:01.612Z,1005.00
2018-09-23T00:59:01.588Z,1005.02
2018-09-23T01:00:01.510Z,1005.02
2018-09-23T01:01:01.459Z,1005.01
2018-09-23T01:02:01.408Z,1005.01
2018-09-23T01:03:01.352Z,1004.97
2018-09-23T01:04:01.339Z,1004.98
2018-09-23T01:05:01.257Z,1004.96
2018-09-23T01:06:01.203Z,1004.93
2018-09-23T01:07:01.152Z,1004.86
2018-09-23T01:08:01.104Z,1004.84
2018-09-23T01:09:01.077Z,1004.79
2018-09-23T01:10:00.995Z,1004.79
2018-09-23T01:11:00.947Z,1004.77
2018-09-23T01:12:00.892Z,1004.75
2018-09-23T01:13:00.844Z,1004.72
2018-09-23T01:14:00.816Z,1004.69
2018-09-23T01:15:00.745Z,1004.70
2018-09-23T01:16:00.690Z,1004.69
2018-09-23T01:17:00.642Z,1004.64
2018-09-23T01:18:00.590Z,1004.62
2018-09-23T01:19:00.569Z,1004.61
2018-09-23T01:20:00.490Z,1004.58
2018-09-23T01:21:00.434Z,1004.57
2018-09-23T01:22:00.385Z,1004.54
2018-09-23T01:23:00.335Z,1004.57
2018-09-23T01:24:00.314Z,1004.57
2018-09-23T01:25:00.237Z,1004.56
2018-09-23T01:26:00.193Z,1004.56
2018-09-23T01:27:00.133Z,1004.54
2018-09-23T01:28:00.096Z,1004.55
2018-09-23T01:29:00.061Z,1004.55
2018-09-23T01:29:59.989Z,1004.56
2018-09-23T01:30:59.932Z,1004.53
2018-09-23T01:31:59.879Z,1004.52
2018-09-23T01:32:59.823Z,1004.52
2018-09-23T01:33:59.819Z,1004.51
2018-09-23T01:34:59.728Z,1004.52
2018-09-23T01:35:59.673Z,1004.49
2018-09-23T01:36:59.622Z,1004.49
2018-09-23T01:37:59.577Z,1004.49
2018-09-23T01:38:59.551Z,1004.51
2018-09-23T01:39:59.473Z,1004.54
2018-09-23T01:40:59.426Z,1004.51
2018-09-23T01:41:59.369Z,1004.49
2018-09-23T01:42:59.315Z,1004.49
2018-09-23T01:43:59.306Z,1004.46
2018-09-23T01:44:59.212Z,1004.42
2018-09-23T01:45:59.174Z,1004.42
2018-09-23T01:46:59.111Z,1004.41
2018-09-23T01:47:59.058Z,1004.42
2018-09-23T01:48:59.010Z,1004.40
2018-09-23T01:49:58.992Z,1004.41
2018-09-23T01:50:58.921Z,1004.40
2018-09-23T01:51:58.864Z,1004.42
2018-09-23T01:52:58.806Z,1004.39
2018-09-23T01:53:58.758Z,1004.39
2018-09-23T01:54:58.740Z,1004.35
2018-09-23T01:55:58.656Z,1004.32
2018-09-23T01:56:58.602Z,1004.25
2018-09-23T01:57:58.564Z,1004.25
2018-09-23T01:58:58.512Z,1004.18
2018-09-23T01:59:58.483Z,1004.13
2018-09-23T02:00:58.401Z,1004.14
2018-09-23T02:01:58.360Z,1004.11
2018-09-23T02:02:58.305Z,1004.08
2018-09-23T02:03:58.244Z,1004.12
2018-09-23T02:04:58.224Z,1004.07
2018-09-23T02:05:58.161Z,1004.08
2018-09-23T02:06:58.098Z,1004.11
2018-09-23T02:07:58.043Z,1004.09
2018-09-23T02:08:57.994Z,1004.10
2018-09-23T02:09:57.963Z,1004.10
2018-09-23T02:10:57.890Z,1004.09
2018-09-23T02:11:57.845Z,1004.09
2018-09-23T02:12:57.793Z,1004.08
2018-09-23T02:13:57.736Z,1004.06
2018-09-23T02:14:57.720Z,1004.05
2018-09-23T02:15:57.648Z,1004.05
2018-09-23T02:16:57.591Z,1004.01
2018-09-23T02:17:57.537Z,1004.05
2018-09-23T02:18:57.483Z,1004.07
2018-09-23T02:19:57.479Z,1004.07
2018-09-23T02:20:57.390Z,1004.07
2018-09-23T02:21:57.330Z,1004.04
2018-09-23T02:22:57.276Z,1004.02
2018-09-23T02:23:57.227Z,1003.96
2018-09-23T02:24:57.201Z,1003.97
2018-09-23T02:25:57.130Z,1003.92
2018-09-23T02:26:57.075Z,1003.96
2018-09-23T02:27:57.032Z,1003.97
2018-09-23T02:28:56.996Z,1003.94
2018-09-23T02:29:56.985Z,1003.89
2018-09-23T02:30:56.871Z,1003.90
2018-09-23T02:31:56.829Z,1003.90
2018-09-23T02:32:56.771Z,1003.91
2018-09-23T02:33:56.722Z,1003.89
2018-09-23T02:34:56.666Z,1003.88
2018-09-23T02:35:56.663Z,1003.86
2018-09-23T02:36:56.564Z,1003.82
2018-09-23T02:37:56.517Z,1003.84
2018-09-23T02:38:56.464Z,1003.81
2018-09-23T02:39:56.415Z,1003.80
2018-09-23T02:40:56.382Z,1003.79
2018-09-23T02:41:56.310Z,1003.78
2018-09-23T02:42:56.278Z,1003.73
2018-09-23T02:43:56.216Z,1003.69
2018-09-23T02:44:56.160Z,1003.65
2018-09-23T02:45:56.154Z,1003.63
2018-09-23T02:46:56.060Z,1003.61
2018-09-23T02:47:56.008Z,1003.52
2018-09-23T02:48:55.970Z,1003.49
2018-09-23T02:49:55.919Z,1003.50
2018-09-23T02:50:55.912Z,1003.53
2018-09-23T02:51:55.825Z,1003.49
2018-09-23T02:52:55.781Z,1003.47
2018-09-23T02:53:55.711Z,1003.47
2018-09-23T02:54:55.653Z,1003.49
2018-09-23T02:55:55.628Z,1003.45
2018-09-23T02:56:55.555Z,1003.43
2018-09-23T02:57:55.504Z,1003.44
2018-09-23T02:58:55.452Z,1003.41
2018-09-23T02:59:55.400Z,1003.41
2018-09-23T03:00:55.391Z,1003.40
2018-09-23T03:01:55.302Z,1003.41
2018-09-23T03:02:55.247Z,1003.41
2018-09-23T03:03:55.199Z,1003.44
2018-09-23T03:04:55.145Z,1003.42
2018-09-23T03:05:55.118Z,1003.42
2018-09-23T03:06:55.054Z,1003.37
2018-09-23T03:07:55.000Z,1003.36
2018-09-23T03:08:54.951Z,1003.32
2018-09-23T03:09:54.896Z,1003.27
2018-09-23T03:10:54.876Z,1003.28
2018-09-23T03:11:54.787Z,1003.24
2018-09-23T03:12:54.747Z,1003.26
2018-09-23T03:13:54.681Z,1003.26
2018-09-23T03:14:54.644Z,1003.24
2018-09-23T03:15:54.630Z,1003.24
2018-09-23T03:16:54.540Z,1003.21
2018-09-23T03:17:54.506Z,1003.22
2018-09-23T03:18:54.441Z,1003.18
2018-09-23T03:19:54.383Z,1003.13
2018-09-23T03:20:54.341Z,1003.13
2018-09-23T03:21:54.309Z,1003.06
2018-09-23T03:22:54.226Z,1003.11
2018-09-23T03:23:54.183Z,1003.05
2018-09-23T03:24:54.131Z,1003.05
2018-09-23T03:25:54.085Z,1003.00
2018-09-23T03:26:54.062Z,1003.02
2018-09-23T03:27:53.972Z,1003.05
2018-09-23T03:28:53.929Z,1003.07
2018-09-23T03:29:53.870Z,1003.08
2018-09-23T03:30:53.835Z,1003.09
2018-09-23T03:31:53.793Z,1003.11
2018-09-23T03:32:53.724Z,1003.11
2018-09-23T03:33:53.672Z,1003.11
2018-09-23T03:34:53.628Z,1003.13
2018-09-23T03:35:53.568Z,1003.06
2018-09-23T03:36:53.538Z,1003.06
2018-09-23T03:37:53.466Z,1003.02
2018-09-23T03:38:53.411Z,1003.00
2018-09-23T03:39:53.365Z,1003.01
2018-09-23T03:40:53.323Z,1002.97
2018-09-23T03:41:53.285Z,1002.95
2018-09-23T03:42:53.215Z,1002.92
2018-09-23T03:43:53.175Z,1002.89
2018-09-23T03:44:53.105Z,1002.89
2018-09-23T03:45:53.065Z,1002.89
2018-09-23T03:46:53.037Z,1002.88
2018-09-23T03:47:52.960Z,1002.85
2018-09-23T03:48:52.902Z,1002.81
2018-09-23T03:49:52.855Z,1002.76
2018-09-23T03:50:52.804Z,1002.74
2018-09-23T03:51:52.797Z,1002.71
2018-09-23T03:52:52.701Z,1002.73
2018-09-23T03:53:52.650Z,1002.70
2018-09-23T03:54:52.599Z,1002.68
2018-09-23T03:55:52.544Z,1002.71
2018-09-23T03:56:52.523Z,1002.69
2018-09-23T03:57:52.468Z,1002.64
2018-09-23T03:58:52.413Z,1002.63
2018-09-23T03:59:52.344Z,1002.61
2018-09-23T04:00:52.296Z,1002.61
2018-09-23T04:01:52.275Z,1002.59
2018-09-23T04:02:52.205Z,1002.56
2018-09-23T04:03:52.141Z,1002.56
2018-09-23T04:04:52.085Z,1002.52
2018-09-23T04:05:52.037Z,1002.48
2018-09-23T04:06:52.023Z,1002.42
2018-09-23T04:07:51.941Z,1002.43
2018-09-23T04:08:51.891Z,1002.36
2018-09-23T04:09:51.847Z,1002.35
2018-09-23T04:10:51.790Z,1002.29
2018-09-23T04:11:51.828Z,1002.28
2018-09-23T04:12:51.686Z,1002.25
2018-09-23T04:13:51.633Z,1002.22
2018-09-23T04:14:51.602Z,1002.17
2018-09-23T04:15:51.546Z,1002.10
2018-09-23T04:16:51.528Z,1002.02
2018-09-23T04:17:51.452Z,1001.96
2018-09-23T04:18:51.380Z,1001.93
2018-09-23T04:19:51.360Z,1001.88
2018-09-23T04:20:51.280Z,1001.84
2018-09-23T04:21:51.253Z,1001.84
2018-09-23T04:22:51.189Z,1001.84
2018-09-23T04:23:51.133Z,1001.92
2018-09-23T04:24:51.080Z,1001.95
2018-09-23T04:25:51.028Z,1001.98
2018-09-23T04:26:51.027Z,1001.96
2018-09-23T04:27:50.925Z,1001.97
2018-09-23T04:28:50.953Z,1001.99
2018-09-23T04:29:50.842Z,1001.93
2018-09-23T04:30:50.775Z,1001.98
2018-09-23T04:31:50.760Z,1001.96
2018-09-23T04:32:50.667Z,1002.01
2018-09-23T04:33:50.644Z,1002.05
2018-09-23T04:34:50.603Z,1002.16
2018-09-23T04:35:50.569Z,1002.23
2018-09-23T04:36:50.530Z,1002.23
2018-09-23T04:37:50.451Z,1002.26
2018-09-23T04:38:50.366Z,1002.27
2018-09-23T04:39:50.346Z,1002.24
2018-09-23T04:40:50.267Z,1002.24
2018-09-23T04:41:50.243Z,1002.21
2018-09-23T04:42:50.176Z,1002.17
2018-09-23T04:43:50.114Z,1002.10
2018-09-23T04:44:50.093Z,1002.09
2018-09-23T04:45:50.006Z,1002.05
2018-09-23T04:46:50.001Z,1002.03
2018-09-23T04:47:49.913Z,1001.98
2018-09-23T04:48:49.866Z,1001.96
2018-09-23T04:49:49.808Z,1001.95
2018-09-23T04:50:49.757Z,1001.96
2018-09-23T04:51:49.706Z,1002.01
2018-09-23T04:52:49.688Z,1002.00
2018-09-23T04:53:49.612Z,1002.00
2018-09-23T04:54:49.572Z,1002.00
2018-09-23T04:55:49.526Z,1001.97
2018-09-23T04:56:49.460Z,1001.99
2018-09-23T04:57:49.436Z,1001.97
2018-09-23T04:58:49.347Z,1001.96
2018-09-23T04:59:49.305Z,1001.92
2018-09-23T05:00:49.244Z,1001.96
2018-09-23T05:01:49.191Z,1001.98
2018-09-23T05:02:49.166Z,1001.98
2018-09-23T05:03:49.089Z,1002.02
2018-09-23T05:04:49.037Z,1002.02
2018-09-23T05:05:48.989Z,1002.04
2018-09-23T05:06:48.949Z,1002.06
2018-09-23T05:07:48.911Z,1002.07
2018-09-23T05:08:48.841Z,1002.06
2018-09-23T05:09:48.786Z,1002.00
2018-09-23T05:10:48.730Z,1001.92
2018-09-23T05:11:48.689Z,1001.87
2018-09-23T05:12:48.660Z,1001.83
2018-09-23T05:13:48.590Z,1001.77
2018-09-23T05:14:48.555Z,1001.80
2018-09-23T05:15:48.477Z,1001.78
2018-09-23T05:16:48.425Z,1001.73
2018-09-23T05:17:48.409Z,1001.75
2018-09-23T05:18:48.327Z,1001.78
2018-09-23T05:19:48.274Z,1001.75
2018-09-23T05:20:48.234Z,1001.78
2018-09-23T05:21:48.170Z,1001.83
2018-09-23T05:22:48.160Z,1001.80
2018-09-23T05:23:48.073Z,1001.79
2018-09-23T05:24:48.022Z,1001.79
2018-09-23T05:25:47.966Z,1001.73
2018-09-23T05:26:47.944Z,1001.67
2018-09-23T05:27:47.903Z,1001.66
2018-09-23T05:28:47.829Z,1001.61
2018-09-23T05:29:47.788Z,1001.57
2018-09-23T05:30:47.716Z,1001.53
2018-09-23T05:31:47.666Z,1001.55
2018-09-23T05:32:47.661Z,1001.57
2018-09-23T05:33:47.586Z,1001.58
2018-09-23T05:34:47.520Z,1001.67
2018-09-23T05:35:47.458Z,1001.75
2018-09-23T05:36:47.425Z,1001.84
2018-09-23T05:37:47.412Z,1001.82
2018-09-23T05:38:47.320Z,1001.80
2018-09-23T05:39:47.287Z,1001.81
2018-09-23T05:40:47.225Z,1001.83
2018-09-23T05:41:47.159Z,1001.83
2018-09-23T05:42:47.149Z,1001.84
2018-09-23T05:43:47.053Z,1001.82
2018-09-23T05:44:47.017Z,1001.76
2018-09-23T05:45:46.969Z,1001.76
2018-09-23T05:46:46.900Z,1001.75
2018-09-23T05:47:46.876Z,1001.81
2018-09-23T05:48:46.813Z,1001.86
2018-09-23T05:49:46.770Z,1001.90
2018-09-23T05:50:46.717Z,1001.90
2018-09-23T05:51:46.650Z,1001.93
2018-09-23T05:52:46.670Z,1001.89
2018-09-23T05:53:46.545Z,1001.89
2018-09-23T05:54:46.515Z,1001.82
2018-09-23T05:55:46.498Z,1001.74
2018-09-23T05:56:46.439Z,1001.66
2018-09-23T05:57:46.371Z,1001.61
2018-09-23T05:58:46.291Z,1001.61
2018-09-23T05:59:46.243Z,1001.57
2018-09-23T06:00:46.206Z,1001.63
2018-09-23T06:01:46.151Z,1001.67
2018-09-23T06:02:46.119Z,1001.73
2018-09-23T06:03:46.035Z,1001.72
2018-09-23T06:04:46.030Z,1001.76
2018-09-23T06:05:45.944Z,1001.74
2018-09-23T06:06:45.890Z,1001.74
2018-09-23T06:07:45.869Z,1001.70
2018-09-23T06:08:45.826Z,1001.68
2018-09-23T06:09:45.728Z,1001.63
2018-09-23T06:10:45.685Z,1001.57
2018-09-23T06:11:45.631Z,1001.54
2018-09-23T06:12:45.640Z,1001.48
2018-09-23T06:13:45.544Z,1001.46
2018-09-23T06:14:45.507Z,1001.44
2018-09-23T06:15:45.444Z,1001.43
2018-09-23T06:16:45.391Z,1001.44
2018-09-23T06:17:45.325Z,1001.41
2018-09-23T06:18:45.315Z,1001.38
2018-09-23T06:19:45.243Z,1001.36
2018-09-23T06:20:45.173Z,1001.37
2018-09-23T06:21:45.133Z,1001.33
2018-09-23T06:22:45.098Z,1001.33
2018-09-23T06:23:45.057Z,1001.29
2018-09-23T06:24:44.968Z,1001.29
2018-09-23T06:25:44.913Z,1001.27
2018-09-23T06:26:44.883Z,1001.24
2018-09-23T06:27:45.225Z,1001.19
2018-09-23T06:28:45.674Z,1001.20
2018-09-23T06:29:44.723Z,1001.20
2018-09-23T06:30:44.676Z,1001.28
2018-09-23T06:31:44.621Z,1001.25
2018-09-23T06:32:44.570Z,1001.27
2018-09-23T06:33:44.532Z,1001.34
2018-09-23T06:34:44.464Z,1001.40
2018-09-23T06:35:44.426Z,1001.42
2018-09-23T06:36:44.354Z,1001.42
2018-09-23T06:37:44.306Z,1001.49
2018-09-23T06:38:44.293Z,1001.48
2018-09-23T06:39:44.203Z,1001.47
2018-09-23T06:40:44.156Z,1001.50
2018-09-23T06:41:44.102Z,1001.47
2018-09-23T06:42:44.054Z,1001.50
2018-09-23T06:43:44.047Z,1001.49
2018-09-23T06:44:43.951Z,1001.49
2018-09-23T06:45:43.922Z,1001.49
2018-09-23T06:46:43.854Z,1001.48
2018-09-23T06:47:43.799Z,1001.49
2018-09-23T06:48:43.781Z,1001.49
2018-09-23T06:49:43.706Z,1001.49
2018-09-23T06:50:43.652Z,1001.47
2018-09-23T06:51:43.599Z,1001.44
2018-09-23T06:52:43.557Z,1001.40
2018-09-23T06:53:43.546Z,1001.42
2018-09-23T06:54:43.455Z,1001.38
2018-09-23T06:55:43.399Z,1001.33
2018-09-23T06:56:43.355Z,1001.30
2018-09-23T06:57:43.321Z,1001.28
2018-09-23T06:58:43.297Z,1001.24
2018-09-23T06:59:43.190Z,1001.27
2018-09-23T07:00:43.150Z,1001.31
2018-09-23T07:01:43.093Z,1001.31
2018-09-23T07:02:43.043Z,1001.26
2018-09-23T07:03:43.017Z,1001.24
2018-09-23T07:04:42.985Z,1001.19
2018-09-23T07:05:42.891Z,1001.13
2018-09-23T07:06:42.845Z,1001.16
2018-09-23T07:07:42.792Z,1001.16
2018-09-23T07:08:42.773Z,1001.20
2018-09-23T07:09:42.688Z,1001.25
2018-09-23T07:10:42.633Z,1001.29
2018-09-23T07:11:42.586Z,1001.40
2018-09-23T07:12:42.533Z,1001.42
2018-09-23T07:13:42.515Z,1001.48
2018-09-23T07:14:42.429Z,1001.50
2018-09-23T07:15:42.386Z,1001.48
2018-09-23T07:16:42.329Z,1001.43
2018-09-23T07:17:42.277Z,1001.39
2018-09-23T07:18:42.253Z,1001.35
2018-09-23T07:19:42.175Z,1001.33
2018-09-23T07:20:42.133Z,1001.34
2018-09-23T07:21:42.075Z,1001.31
2018-09-23T07:22:42.032Z,1001.30
2018-09-23T07:23:42.033Z,1001.26
2018-09-23T07:24:41.929Z,1001.22
2018-09-23T07:25:41.875Z,1001.19
2018-09-23T07:26:41.826Z,1001.13
2018-09-23T07:27:41.778Z,1001.11
2018-09-23T07:28:41.751Z,1001.07
2018-09-23T07:29:41.673Z,1001.06
2018-09-23T07:30:41.630Z,1001.11
2018-09-23T07:31:41.566Z,1001.09
2018-09-23T07:32:41.521Z,1001.09
2018-09-23T07:33:41.496Z,1001.12
2018-09-23T07:34:41.419Z,1001.13
2018-09-23T07:35:41.386Z,1001.19
2018-09-23T07:36:41.334Z,1001.17
2018-09-23T07:37:41.274Z,1001.21
2018-09-23T07:38:41.262Z,1001.24
2018-09-23T07:39:41.204Z,1001.22
2018-09-23T07:40:41.115Z,1001.21
2018-09-23T07:41:41.061Z,1001.24
2018-09-23T07:42:41.012Z,1001.18
2018-09-23T07:43:40.964Z,1001.16
2018-09-23T07:44:40.935Z,1001.11
2018-09-23T07:45:40.869Z,1001.09
2018-09-23T07:46:40.814Z,1001.07
2018-09-23T07:47:40.760Z,1001.02
2018-09-23T07:48:40.717Z,1000.99
2018-09-23T07:49:40.683Z,1000.98
2018-09-23T07:50:40.623Z,1001.00
2018-09-23T07:51:40.564Z,1001.01
2018-09-23T07:52:40.509Z,1001.03
2018-09-23T07:53:40.473Z,1001.01
2018-09-23T07:54:40.429Z,1000.96
2018-09-23T07:55:40.357Z,1000.87
2018-09-23T07:56:40.314Z,1000.77
2018-09-23T07:57:40.259Z,1000.77
2018-09-23T07:58:40.208Z,1000.77
2018-09-23T07:59:40.209Z,1000.79
2018-09-23T08:00:40.113Z,1000.80
2018-09-23T08:01:40.055Z,1000.75
2018-09-23T08:02:40.008Z,1000.78
2018-09-23T08:03:39.956Z,1000.82
2018-09-23T08:04:39.926Z,1000.76
2018-09-23T08:05:39.856Z,1000.64
2018-09-23T08:06:39.812Z,1000.60
2018-09-23T08:07:39.749Z,1000.56
2018-09-23T08:08:39.708Z,1000.60
2018-09-23T08:09:39.686Z,1000.64
2018-09-23T08:10:39.599Z,1000.71
2018-09-23T08:11:39.548Z,1000.73
2018-09-23T08:12:39.609Z,1000.77
2018-09-23T08:13:39.575Z,1000.73
2018-09-23T08:14:39.764Z,1000.72
2018-09-23T08:15:39.352Z,1000.74
2018-09-23T08:16:39.303Z,1000.71
2018-09-23T08:17:39.255Z,1000.62
2018-09-23T08:18:39.195Z,1000.58
2018-09-23T08:19:39.278Z,1000.53
2018-09-23T08:20:39.161Z,1000.59
2018-09-23T08:21:39.045Z,1000.58
2018-09-23T08:22:39.001Z,1000.62
2018-09-23T08:23:38.949Z,1000.63
2018-09-23T08:24:38.928Z,1000.68
2018-09-23T08:25:38.878Z,1000.66
2018-09-23T08:26:38.859Z,1000.68
2018-09-23T08:27:38.745Z,1000.64
2018-09-23T08:28:38.688Z,1000.58
2018-09-23T08:29:38.682Z,1000.54
2018-09-23T08:30:38.617Z,1000.46
2018-09-23T08:31:38.541Z,1000.32
2018-09-23T08:32:38.491Z,1000.31
2018-09-23T08:33:38.454Z,1000.36
2018-09-23T08:34:38.412Z,1000.40
2018-09-23T08:35:38.342Z,1000.40
2018-09-23T08:36:38.291Z,1000.45
2018-09-23T08:37:38.237Z,1000.41
2018-09-23T08:38:38.200Z,1000.44
2018-09-23T08:39:38.174Z,1000.48
2018-09-23T08:40:38.090Z,1000.50
2018-09-23T08:41:38.040Z,1000.57
2018-09-23T08:42:37.986Z,1000.55
2018-09-23T08:43:37.934Z,1000.61
2018-09-23T08:44:37.912Z,1000.57
2018-09-23T08:45:37.837Z,1000.50
2018-09-23T08:46:37.783Z,1000.43
2018-09-23T08:47:37.757Z,1000.38
2018-09-23T08:48:37.695Z,1000.38
2018-09-23T08:49:37.663Z,1000.30
2018-09-23T08:50:37.589Z,1000.26
2018-09-23T08:51:37.594Z,1000.23
2018-09-23T08:52:37.496Z,1000.17
2018-09-23T08:53:37.452Z,1000.05
2018-09-23T08:54:37.416Z,999.95
2018-09-23T08:55:37.328Z,999.94
2018-09-23T08:56:37.328Z,999.93
2018-09-23T08:57:37.259Z,999.96
2018-09-23T08:58:37.181Z,999.96
2018-09-23T08:59:37.158Z,999.98
2018-09-23T09:00:37.085Z,1000.00
2018-09-23T09:01:37.033Z,1000.01
2018-09-23T09:02:36.978Z,999.99
2018-09-23T09:03:36.949Z,999.93
2018-09-23T09:04:36.902Z,999.84
2018-09-23T09:05:36.830Z,999.83
2018-09-23T09:06:36.781Z,999.82
2018-09-23T09:07:36.727Z,999.84
2018-09-23T09:08:36.681Z,999.78
2018-09-23T09:09:36.678Z,999.78
2018-09-23T09:10:36.588Z,999.76
2018-09-23T09:11:36.544Z,999.79
2018-09-23T09:12:36.481Z,999.85
2018-09-23T09:13:36.427Z,999.85
2018-09-23T09:14:36.373Z,999.89
2018-09-23T09:15:36.405Z,999.90
2018-09-23T09:16:36.285Z,999.88
2018-09-23T09:17:36.231Z,999.79
2018-09-23T09:18:36.221Z,999.80
2018-09-23T09:19:36.124Z,999.79
2018-09-23T09:20:36.123Z,999.75
2018-09-23T09:21:36.050Z,999.72
2018-09-23T09:22:35.977Z,999.62
2018-09-23T09:23:35.920Z,999.60
2018-09-23T09:24:35.883Z,999.63
2018-09-23T09:25:35.863Z,999.62
2018-09-23T09:26:35.825Z,999.65
2018-09-23T09:27:35.731Z,999.63
2018-09-23T09:28:35.678Z,999.65
2018-09-23T09:29:35.629Z,999.63
2018-09-23T09:30:35.599Z,999.59
2018-09-23T09:31:35.534Z,999.57
2018-09-23T09:32:35.500Z,999.55
2018-09-23T09:33:35.443Z,999.47
2018-09-23T09:34:35.387Z,999.48
2018-09-23T09:35:35.369Z,999.51
2018-09-23T09:36:35.274Z,999.50
2018-09-23T09:37:35.223Z,999.45
2018-09-23T09:38:35.250Z,999.46
2018-09-23T09:39:35.137Z,999.37
2018-09-23T09:40:35.100Z,999.36
2018-09-23T09:41:35.031Z,999.33
2018-09-23T09:42:34.979Z,999.37
2018-09-23T09:43:34.916Z,999.33
2018-09-23T09:44:34.898Z,999.30
2018-09-23T09:45:34.863Z,999.33
2018-09-23T09:46:34.780Z,999.25
2018-09-23T09:47:34.722Z,999.28
2018-09-23T09:48:34.678Z,999.32
2018-09-23T09:49:34.615Z,999.31
2018-09-23T09:50:34.604Z,999.27
2018-09-23T09:51:34.521Z,999.19
2018-09-23T09:52:34.472Z,999.20
2018-09-23T09:53:34.509Z,999.18
2018-09-23T09:54:34.367Z,999.22
2018-09-23T09:55:34.355Z,999.20
2018-09-23T09:56:34.263Z,999.17
2018-09-23T09:57:34.252Z,999.16
2018-09-23T09:58:34.177Z,999.12
2018-09-23T09:59:34.143Z,999.05
2018-09-23T10:00:34.108Z,999.05
2018-09-23T10:01:34.021Z,998.95
2018-09-23T10:02:33.973Z,998.92
2018-09-23T10:03:33.921Z,998.92
2018-09-23T10:04:33.867Z,998.92
2018-09-23T10:05:33.832Z,998.95
2018-09-23T10:06:33.756Z,998.94
2018-09-23T10:07:33.712Z,998.93
2018-09-23T10:08:33.668Z,998.92
2018-09-23T10:09:33.620Z,998.89
2018-09-23T10:10:33.624Z,998.85
2018-09-23T10:11:33.538Z,998.81
2018-09-23T10:12:33.466Z,998.84
2018-09-23T10:13:33.417Z,998.83
2018-09-23T10:14:33.376Z,998.87
2018-09-23T10:15:33.325Z,998.86
2018-09-23T10:16:33.292Z,998.88
2018-09-23T10:17:33.210Z,998.92
2018-09-23T10:18:33.157Z,998.91
2018-09-23T10:19:33.104Z,998.89
2018-09-23T10:20:33.090Z,998.90
2018-09-23T10:21:33.004Z,998.85
2018-09-23T10:22:33.038Z,998.83
2018-09-23T10:23:33.077Z,998.84
2018-09-23T10:24:32.850Z,998.77
2018-09-23T10:25:32.839Z,998.71
2018-09-23T10:26:32.749Z,998.64
2018-09-23T10:27:32.702Z,998.61
2018-09-23T10:28:32.657Z,998.58
2018-09-23T10:29:32.600Z,998.57
2018-09-23T10:30:32.585Z,998.62
2018-09-23T10:31:32.497Z,998.60
2018-09-23T10:32:32.450Z,998.58
2018-09-23T10:33:32.402Z,998.58
2018-09-23T10:34:32.352Z,998.56
2018-09-23T10:35:32.354Z,998.58
2018-09-23T10:36:32.254Z,998.57
2018-09-23T10:37:32.195Z,998.64
2018-09-23T10:38:32.150Z,998.62
2018-09-23T10:39:32.093Z,998.56
2018-09-23T10:40:32.041Z,998.53
2018-09-23T10:41:32.018Z,998.53
2018-09-23T10:42:31.940Z,998.51
2018-09-23T10:43:31.895Z,998.50
2018-09-23T10:44:31.848Z,998.52
2018-09-23T10:45:31.792Z,998.54
2018-09-23T10:46:31.766Z,998.55
2018-09-23T10:47:31.693Z,998.53
2018-09-23T10:48:31.638Z,998.47
2018-09-23T10:49:31.593Z,998.49
2018-09-23T10:50:31.538Z,998.47
2018-09-23T10:51:31.505Z,998.44
2018-09-23T10:52:31.433Z,998.41
2018-09-23T10:53:31.389Z,998.38
2018-09-23T10:54:31.334Z,998.39
2018-09-23T10:55:31.304Z,998.35
2018-09-23T10:56:31.255Z,998.32
2018-09-23T10:57:31.186Z,998.35
2018-09-23T10:58:31.129Z,998.36
2018-09-23T10:59:31.166Z,998.32
2018-09-23T11:00:31.024Z,998.33
2018-09-23T11:01:31.001Z,998.33
2018-09-23T11:02:30.931Z,998.32
2018-09-23T11:03:30.880Z,998.39
2018-09-23T11:04:30.827Z,998.44
2018-09-23T11:05:30.772Z,998.53
2018-09-23T11:06:30.754Z,998.57
2018-09-23T11:07:30.681Z,998.63
2018-09-23T11:08:30.615Z,998.65
2018-09-23T11:09:30.567Z,998.67
2018-09-23T11:10:30.525Z,998.68
2018-09-23T11:11:30.492Z,998.71
2018-09-23T11:12:30.417Z,998.74
2018-09-23T11:13:30.361Z,998.70
2018-09-23T11:14:30.314Z,998.64
2018-09-23T11:15:30.260Z,998.54
2018-09-23T11:16:30.239Z,998.49
2018-09-23T11:17:30.157Z,998.48
2018-09-23T11:18:30.109Z,998.45
2018-09-23T11:19:30.054Z,998.49
2018-09-23T11:20:30.003Z,998.51
2018-09-23T11:21:29.976Z,998.50
2018-09-23T11:22:29.901Z,998.51
2018-09-23T11:23:29.938Z,998.47
2018-09-23T11:24:29.804Z,998.48
2018-09-23T11:25:29.750Z,998.49
2018-09-23T11:26:29.734Z,998.43
2018-09-23T11:27:29.648Z,998.39
2018-09-23T11:28:29.663Z,998.39
2018-09-23T11:29:29.553Z,998.33
2018-09-23T11:30:29.491Z,998.27
2018-09-23T11:31:29.461Z,998.17
2018-09-23T11:32:29.389Z,998.13
2018-09-23T11:33:29.347Z,998.07
2018-09-23T11:34:29.294Z,998.05
2018-09-23T11:35:29.236Z,998.07
2018-09-23T11:36:29.212Z,998.05
2018-09-23T11:37:29.129Z,997.99
2018-09-23T11:38:29.079Z,998.04
2018-09-23T11:39:29.027Z,997.98
2018-09-23T11:40:28.981Z,998.07
2018-09-23T11:41:28.950Z,998.12
2018-09-23T11:42:28.876Z,998.09
2018-09-23T11:43:28.822Z,998.12
2018-09-23T11:44:28.773Z,998.22
2018-09-23T11:45:28.720Z,998.15
2018-09-23T11:46:28.717Z,998.24
2018-09-23T11:47:28.616Z,998.20
2018-09-23T11:48:28.573Z,998.17
2018-09-23T11:49:28.520Z,998.17
2018-09-23T11:50:28.464Z,998.14
2018-09-23T11:51:28.411Z,998.08
2018-09-23T11:52:28.405Z,997.99
2018-09-23T11:53:28.311Z,997.85
2018-09-23T11:54:28.256Z,997.87
2018-09-23T11:55:28.216Z,997.73
2018-09-23T11:56:28.157Z,997.74
2018-09-23T11:57:28.123Z,997.66
2018-09-23T11:58:28.049Z,997.59
2018-09-23T11:59:27.998Z,997.52
2018-09-23T12:00:27.948Z,997.45
2018-09-23T12:01:27.895Z,997.43
2018-09-23T12:02:27.873Z,997.37
2018-09-23T12:03:27.793Z,997.36
2018-09-23T12:04:27.808Z,997.27
2018-09-23T12:05:27.698Z,997.18
2018-09-23T12:06:27.647Z,997.18
2018-09-23T12:07:27.615Z,997.13
2018-09-23T12:08:27.539Z,997.17
2018-09-23T12:09:27.484Z,997.05
2018-09-23T12:10:27.518Z,997.05